createdAt,value
2019-04-03T00:00:12.009Z,12.41
2019-04-03T00:02:40.488Z,12.42
2019-04-03T00:05:08.981Z,12.40
2019-04-03T00:07:37.442Z,12.35
2019-04-03T00:10:07.230Z,12.23
2019-04-03T00:12:35.845Z,12.22
2019-04-03T00:15:05.000Z,12.20
2019-04-03T00:17:33.532Z,12.20
2019-04-03T00:20:02.043Z,12.22
2019-04-03T00:22:30.501Z,12.13
2019-04-03T00:24:59.411Z,12.08
2019-04-03T00:27:28.031Z,12.04
2019-04-03T00:29:56.732Z,12.00
2019-04-03T00:32:25.201Z,11.93
2019-04-03T00:34:53.943Z,11.86
2019-04-03T00:37:23.174Z,11.82
2019-04-03T00:39:53.875Z,11.82
2019-04-03T00:42:24.176Z,11.79
2019-04-03T00:44:54.709Z,11.80
2019-04-03T00:47:25.087Z,11.79
2019-04-03T00:49:56.215Z,11.69
2019-04-03T00:52:23.833Z,11.66
2019-04-03T00:54:52.308Z,11.67
2019-04-03T00:57:20.822Z,11.71
2019-04-03T00:59:49.686Z,11.65
2019-04-03T01:02:18.165Z,11.59
2019-04-03T01:04:46.660Z,11.59
2019-04-03T01:07:15.139Z,11.59
2019-04-03T01:09:43.615Z,11.61
2019-04-03T01:12:12.080Z,11.60
2019-04-03T01:14:40.580Z,11.62
2019-04-03T01:17:09.043Z,11.63
2019-04-03T01:19:37.506Z,11.63
2019-04-03T01:22:07.776Z,11.60
2019-04-03T01:24:36.716Z,11.67
2019-04-03T01:27:06.395Z,11.72
2019-04-03T01:29:34.895Z,11.71
2019-04-03T01:32:03.623Z,11.79
2019-04-03T01:34:32.132Z,11.83
2019-04-03T01:37:00.878Z,11.72
2019-04-03T01:39:29.358Z,11.78
2019-04-03T01:41:57.874Z,11.89
2019-04-03T01:44:26.344Z,11.95
2019-04-03T01:46:57.423Z,11.98
2019-04-03T01:49:28.011Z,11.97
2019-04-03T01:51:55.578Z,11.83
2019-04-03T01:54:24.054Z,11.78
2019-04-03T01:56:52.517Z,11.71
2019-04-03T01:59:21.305Z,11.82
2019-04-03T02:01:50.041Z,11.83
2019-04-03T02:04:18.529Z,11.85
2019-04-03T02:06:47.003Z,11.86
2019-04-03T02:09:16.309Z,11.93
2019-04-03T02:11:44.861Z,11.80
2019-04-03T02:14:13.512Z,11.71
2019-04-03T02:16:41.995Z,11.69
2019-04-03T02:19:10.506Z,11.67
2019-04-03T02:21:38.978Z,11.70
2019-04-03T02:24:07.442Z,11.59
2019-04-03T02:26:35.971Z,11.75
2019-04-03T02:29:06.612Z,11.87
2019-04-03T02:31:34.690Z,11.84
2019-04-03T02:34:03.389Z,11.85
2019-04-03T02:36:31.853Z,11.80
2019-04-03T02:39:00.533Z,11.58
2019-04-03T02:41:28.978Z,11.58
2019-04-03T02:43:57.456Z,11.66
2019-04-03T02:46:28.072Z,11.61
2019-04-03T02:48:56.213Z,11.45
2019-04-03T02:51:24.869Z,11.37
2019-04-03T02:53:53.349Z,11.36
2019-04-03T02:56:22.129Z,11.30
2019-04-03T02:58:53.561Z,11.26
2019-04-03T03:01:20.863Z,11.13
2019-04-03T03:03:50.071Z,11.11
2019-04-03T03:06:18.992Z,11.09
2019-04-03T03:08:47.730Z,11.07
2019-04-03T03:11:16.226Z,11.01
2019-04-03T03:13:44.790Z,10.98
2019-04-03T03:16:14.537Z,10.99
2019-04-03T03:18:43.528Z,11.03
2019-04-03T03:21:14.297Z,11.19
2019-04-03T03:23:42.872Z,11.27
2019-04-03T03:26:11.612Z,11.32
2019-04-03T03:28:40.070Z,11.42
2019-04-03T03:31:08.599Z,11.30
2019-04-03T03:33:40.088Z,11.26
2019-04-03T03:36:08.076Z,11.28
2019-04-03T03:38:39.405Z,11.40
2019-04-03T03:41:06.954Z,11.32
2019-04-03T03:43:38.227Z,11.21
2019-04-03T03:46:05.970Z,11.27
2019-04-03T03:48:34.451Z,11.37
2019-04-03T03:51:03.307Z,11.47
2019-04-03T03:53:31.829Z,11.54
2019-04-03T03:56:00.718Z,11.58
2019-04-03T03:58:29.426Z,11.61
2019-04-03T04:01:00.303Z,11.60
2019-04-03T04:03:28.334Z,11.57
2019-04-03T04:05:56.998Z,11.52
2019-04-03T04:08:25.478Z,11.44
2019-04-03T04:10:58.195Z,11.50
2019-04-03T04:13:24.311Z,11.54
2019-04-03T04:15:52.717Z,11.60
2019-04-03T04:18:23.713Z,11.57
2019-04-03T04:20:51.411Z,11.42
2019-04-03T04:23:23.112Z,11.31
2019-04-03T04:25:50.193Z,11.24
2019-04-03T04:28:18.675Z,11.30
2019-04-03T04:30:47.484Z,11.40
2019-04-03T04:33:16.960Z,11.50
2019-04-03T04:35:46.483Z,11.56
2019-04-03T04:38:14.951Z,11.60
2019-04-03T04:40:43.659Z,11.62
2019-04-03T04:43:12.099Z,11.64
2019-04-03T04:45:42.212Z,11.61
2019-04-03T04:48:10.776Z,11.45
2019-04-03T04:50:39.278Z,11.36
2019-04-03T04:53:07.835Z,11.37
2019-04-03T04:55:37.727Z,11.28
2019-04-03T04:58:06.520Z,11.20
2019-04-03T05:00:35.028Z,11.14
2019-04-03T05:03:03.444Z,11.35
2019-04-03T05:05:31.954Z,14.15
2019-04-03T05:08:02.205Z,14.77
2019-04-03T05:10:30.723Z,14.08
2019-04-03T05:12:59.298Z,13.22
2019-04-03T05:15:27.775Z,12.61
2019-04-03T05:17:57.721Z,12.18
2019-04-03T05:20:26.465Z,11.88
2019-04-03T05:22:55.694Z,11.75
2019-04-03T05:25:24.229Z,11.69
2019-04-03T05:27:52.720Z,11.66
2019-04-03T05:30:30.485Z,11.64
2019-04-03T05:32:59.632Z,11.63
2019-04-03T05:35:28.141Z,11.63
2019-04-03T05:37:56.869Z,11.64
2019-04-03T05:40:26.111Z,11.68
2019-04-03T05:42:55.028Z,11.71
2019-04-03T05:45:23.506Z,11.71
2019-04-03T05:47:52.180Z,11.70
2019-04-03T05:50:20.638Z,11.75
2019-04-03T05:52:49.161Z,11.79
2019-04-03T05:55:17.833Z,11.85
2019-04-03T05:57:46.275Z,11.88
2019-04-03T06:00:14.751Z,11.90
2019-04-03T06:02:43.210Z,11.92
2019-04-03T06:05:13.424Z,11.94
2019-04-03T06:07:41.963Z,11.98
2019-04-03T06:10:10.546Z,11.98
2019-04-03T06:12:39.488Z,12.01
2019-04-03T06:15:09.858Z,12.02
2019-04-03T06:17:38.250Z,11.99
2019-04-03T06:20:10.389Z,12.03
2019-04-03T06:22:37.783Z,12.09
2019-04-03T06:25:06.679Z,12.15
2019-04-03T06:27:35.356Z,12.18
2019-04-03T06:30:04.052Z,12.19
2019-04-03T06:32:32.533Z,12.21
2019-04-03T06:35:00.995Z,12.17
2019-04-03T06:37:29.468Z,12.03
2019-04-03T06:39:57.966Z,11.88
2019-04-03T06:42:26.476Z,11.78
2019-04-03T06:44:55.179Z,11.81
2019-04-03T06:47:24.067Z,12.01
2019-04-03T06:49:52.597Z,12.16
2019-04-03T06:52:21.508Z,12.29
2019-04-03T06:54:50.684Z,12.34
2019-04-03T06:57:19.157Z,12.41
2019-04-03T06:59:48.702Z,12.50
2019-04-03T07:02:17.435Z,12.52
2019-04-03T07:04:45.905Z,12.41
2019-04-03T07:07:14.379Z,12.44
2019-04-03T07:09:42.902Z,12.49
2019-04-03T07:12:11.390Z,12.46
2019-04-03T07:14:39.937Z,12.36
2019-04-03T07:17:08.728Z,12.19
2019-04-03T07:19:37.903Z,12.23
2019-04-03T07:22:07.547Z,12.13
2019-04-03T07:24:36.328Z,12.21
2019-04-03T07:27:06.302Z,12.26
2019-04-03T07:29:35.162Z,12.34
2019-04-03T07:32:03.679Z,12.52
2019-04-03T07:34:34.505Z,12.65
2019-04-03T07:37:02.383Z,12.55
2019-04-03T07:39:30.844Z,12.48
2019-04-03T07:41:59.420Z,12.49
2019-04-03T07:44:29.905Z,12.66
2019-04-03T07:46:58.078Z,12.84
2019-04-03T07:49:26.738Z,12.98
2019-04-03T07:51:55.192Z,13.11
2019-04-03T07:54:26.120Z,13.13
2019-04-03T07:56:56.802Z,13.13
2019-04-03T07:59:24.142Z,13.17
2019-04-03T08:01:52.623Z,13.22
2019-04-03T08:04:23.530Z,13.27
2019-04-03T08:06:51.313Z,13.20
2019-04-03T08:09:20.405Z,13.25
2019-04-03T08:11:48.968Z,13.33
2019-04-03T08:14:19.406Z,13.41
2019-04-03T08:16:48.765Z,13.46
2019-04-03T08:19:17.892Z,13.48
2019-04-03T08:21:46.496Z,13.50
2019-04-03T08:24:14.991Z,13.52
2019-04-03T08:26:43.455Z,13.53
2019-04-03T08:29:12.102Z,13.59
2019-04-03T08:31:43.195Z,13.62
2019-04-03T08:34:16.798Z,13.61
2019-04-03T08:36:41.646Z,13.52
2019-04-03T08:39:10.097Z,13.60
2019-04-03T08:41:38.943Z,13.67
2019-04-03T08:44:08.597Z,13.74
2019-04-03T08:46:37.619Z,13.79
2019-04-03T08:49:06.135Z,13.82
2019-04-03T08:51:34.986Z,13.86
2019-04-03T08:54:03.481Z,13.87
2019-04-03T08:56:32.218Z,13.89
2019-04-03T08:59:00.704Z,13.85
2019-04-03T09:01:29.179Z,13.86
2019-04-03T09:03:57.667Z,13.84
2019-04-03T09:06:26.372Z,13.81
2019-04-03T09:08:57.191Z,13.81
2019-04-03T09:11:25.450Z,13.83
2019-04-03T09:13:54.922Z,13.90
2019-04-03T09:16:24.443Z,13.93
2019-04-03T09:18:52.935Z,13.93
2019-04-03T09:21:21.777Z,13.95
2019-04-03T09:23:50.260Z,13.86
2019-04-03T09:26:18.739Z,13.74
2019-04-03T09:28:47.250Z,13.81
2019-04-03T09:31:17.133Z,13.84
2019-04-03T09:33:46.041Z,13.80
2019-04-03T09:36:14.632Z,13.75
2019-04-03T09:38:43.354Z,13.64
2019-04-03T09:41:12.030Z,13.50
2019-04-03T09:43:40.574Z,13.41
2019-04-03T09:46:09.052Z,13.23
2019-04-03T09:48:37.953Z,13.21
2019-04-03T09:51:09.123Z,13.19
2019-04-03T09:53:36.678Z,13.21
2019-04-03T09:56:07.314Z,13.21
2019-04-03T09:58:35.815Z,13.21
2019-04-03T10:01:05.039Z,13.09
2019-04-03T10:03:33.632Z,13.05
2019-04-03T10:06:02.019Z,13.07
2019-04-03T10:08:30.504Z,13.07
2019-04-03T10:10:59.150Z,13.03
2019-04-03T10:13:27.966Z,13.02
2019-04-03T10:15:56.392Z,13.00
2019-04-03T10:18:25.012Z,12.94
2019-04-03T10:20:53.400Z,12.90
2019-04-03T10:23:22.182Z,12.87
2019-04-03T10:25:53.102Z,12.82
2019-04-03T10:28:21.103Z,12.74
2019-04-03T10:30:52.468Z,12.71
2019-04-03T10:33:19.985Z,12.73
2019-04-03T10:35:48.471Z,12.70
2019-04-03T10:38:18.570Z,12.69
2019-04-03T10:40:47.120Z,12.66
2019-04-03T10:43:15.594Z,12.63
2019-04-03T10:45:44.134Z,12.71
2019-04-03T10:48:12.871Z,12.75
2019-04-03T10:50:41.419Z,12.69
2019-04-03T10:53:10.174Z,12.71
2019-04-03T10:55:39.092Z,12.80
2019-04-03T10:58:08.542Z,12.86
2019-04-03T11:00:37.574Z,12.64
2019-04-03T11:03:06.269Z,12.75
2019-04-03T11:05:34.782Z,12.84
2019-04-03T11:08:03.655Z,12.82
2019-04-03T11:10:32.408Z,12.86
2019-04-03T11:13:02.849Z,12.95
2019-04-03T11:15:31.320Z,12.97
2019-04-03T11:17:59.900Z,12.96
2019-04-03T11:20:28.472Z,12.94
2019-04-03T11:23:05.660Z,12.79
2019-04-03T11:25:27.210Z,12.81
2019-04-03T11:27:56.398Z,12.80
2019-04-03T11:30:25.511Z,12.86
2019-04-03T11:32:54.102Z,12.87
2019-04-03T11:35:22.919Z,12.93
2019-04-03T11:37:51.326Z,13.00
2019-04-03T11:40:20.025Z,13.12
2019-04-03T11:42:48.677Z,13.10
2019-04-03T11:45:17.246Z,13.12
2019-04-03T11:47:46.407Z,13.08
2019-04-03T11:50:15.536Z,13.14
2019-04-03T11:52:44.318Z,13.24
2019-04-03T11:55:12.837Z,13.14
2019-04-03T11:57:41.290Z,12.94
2019-04-03T12:00:14.365Z,12.94
2019-04-03T12:02:44.457Z,13.03
2019-04-03T12:05:16.231Z,13.03
2019-04-03T12:07:43.471Z,13.02
2019-04-03T12:10:11.945Z,13.01
2019-04-03T12:12:42.090Z,13.02
2019-04-03T12:15:10.885Z,13.05
2019-04-03T12:17:39.298Z,13.08
2019-04-03T12:20:09.285Z,13.01
2019-04-03T12:22:38.067Z,12.96
2019-04-03T12:25:06.548Z,12.97
2019-04-03T12:27:36.023Z,12.92
2019-04-03T12:30:07.255Z,12.92
2019-04-03T12:32:39.360Z,13.01
2019-04-03T12:35:07.301Z,13.03
2019-04-03T12:37:37.046Z,12.96
2019-04-03T12:40:06.558Z,12.84
2019-04-03T12:42:35.723Z,12.78
2019-04-03T12:45:05.285Z,12.59
2019-04-03T12:47:34.069Z,12.56
2019-04-03T12:50:02.544Z,12.65
2019-04-03T12:52:31.139Z,12.89
2019-04-03T12:54:59.696Z,13.13
2019-04-03T12:57:28.101Z,13.31
2019-04-03T12:59:56.720Z,13.44
2019-04-03T13:02:25.190Z,13.50
2019-04-03T13:04:53.716Z,13.42
2019-04-03T13:07:22.117Z,13.37
2019-04-03T13:09:50.597Z,13.43
2019-04-03T13:12:22.073Z,13.25
2019-04-03T13:14:49.690Z,13.29
2019-04-03T13:17:19.028Z,13.35
2019-04-03T13:19:47.654Z,13.42
2019-04-03T13:22:18.017Z,13.68
2019-04-03T13:24:48.299Z,14.13
2019-04-03T13:27:16.785Z,14.48
2019-04-03T13:29:45.254Z,14.85
2019-04-03T13:32:16.796Z,15.17
2019-04-03T13:34:43.896Z,15.34
2019-04-03T13:37:12.393Z,15.39
2019-04-03T13:39:40.820Z,15.29
2019-04-03T13:42:09.449Z,15.12
2019-04-03T13:44:37.912Z,14.95
2019-04-03T13:47:08.589Z,14.83
2019-04-03T13:49:36.718Z,14.70
2019-04-03T13:52:08.541Z,14.60
2019-04-03T13:54:35.735Z,14.51
2019-04-03T13:57:04.283Z,14.43
2019-04-03T13:59:32.691Z,14.35
2019-04-03T14:02:01.424Z,14.28
2019-04-03T14:04:30.142Z,14.23
2019-04-03T14:06:58.600Z,14.15
2019-04-03T14:09:27.356Z,14.12
2019-04-03T14:11:55.878Z,14.11
2019-04-03T14:14:24.574Z,14.13
2019-04-03T14:16:53.036Z,14.13
2019-04-03T14:19:24.313Z,14.10
2019-04-03T14:21:51.709Z,14.05
2019-04-03T14:24:20.286Z,13.96
2019-04-03T14:26:48.694Z,13.92
2019-04-03T14:29:17.180Z,13.89
2019-04-03T14:31:47.988Z,13.89
2019-04-03T14:34:15.914Z,13.84
2019-04-03T14:36:44.686Z,13.79
2019-04-03T14:39:13.864Z,14.89
2019-04-03T14:41:42.371Z,15.89
2019-04-03T14:44:10.842Z,16.56
2019-04-03T14:46:39.346Z,16.88
2019-04-03T14:49:07.838Z,16.89
2019-04-03T14:51:36.664Z,16.92
2019-04-03T14:54:07.730Z,17.24
2019-04-03T14:56:35.972Z,17.43
2019-04-03T14:59:04.704Z,17.64
2019-04-03T15:01:33.235Z,17.58
2019-04-03T15:04:02.270Z,17.56
2019-04-03T15:06:31.059Z,17.58
2019-04-03T15:08:59.530Z,17.53
2019-04-03T15:11:28.022Z,17.51
2019-04-03T15:13:56.722Z,17.46
2019-04-03T15:16:25.435Z,16.79
2019-04-03T15:18:53.834Z,15.92
2019-04-03T15:21:23.711Z,15.42
2019-04-03T15:23:52.510Z,15.07
2019-04-03T15:26:22.226Z,14.89
2019-04-03T15:28:50.923Z,14.84
2019-04-03T15:31:19.358Z,14.78
2019-04-03T15:33:48.128Z,14.85
2019-04-03T15:36:16.562Z,14.94
2019-04-03T15:38:46.295Z,15.06
2019-04-03T15:41:14.991Z,15.26
2019-04-03T15:43:45.602Z,15.42
2019-04-03T15:46:14.101Z,15.59
2019-04-03T15:48:42.623Z,15.85
2019-04-03T15:51:11.105Z,16.16
2019-04-03T15:53:39.585Z,16.62
2019-04-03T15:56:08.067Z,16.96
2019-04-03T15:58:36.536Z,17.04
2019-04-03T16:01:07.883Z,17.20
2019-04-03T16:03:35.464Z,17.11
2019-04-03T16:06:04.756Z,17.04
2019-04-03T16:08:33.661Z,17.14
2019-04-03T16:11:02.738Z,17.25
2019-04-03T16:13:31.252Z,17.34
2019-04-03T16:16:01.548Z,18.28
2019-04-03T16:18:29.937Z,19.04
2019-04-03T16:20:58.393Z,19.29
2019-04-03T16:23:27.248Z,19.58
2019-04-03T16:25:55.720Z,19.78
2019-04-03T16:28:24.164Z,19.74
2019-04-03T16:30:53.966Z,19.77
2019-04-03T16:33:24.637Z,19.84
2019-04-03T16:35:53.862Z,19.92
2019-04-03T16:38:22.890Z,19.91
2019-04-03T16:40:51.406Z,19.78
2019-04-03T16:43:22.153Z,19.73
2019-04-03T16:45:51.310Z,19.66
2019-04-03T16:48:19.857Z,19.33
2019-04-03T16:50:48.592Z,18.95
2019-04-03T16:53:19.283Z,18.11
2019-04-03T16:55:47.622Z,17.37
2019-04-03T16:58:16.109Z,16.83
2019-04-03T17:00:44.631Z,15.99
2019-04-03T17:03:13.438Z,16.16
2019-04-03T17:05:43.694Z,15.98
2019-04-03T17:08:12.325Z,15.88
2019-04-03T17:10:41.203Z,15.81
2019-04-03T17:13:09.727Z,15.72
2019-04-03T17:15:38.176Z,15.58
2019-04-03T17:18:06.633Z,15.44
2019-04-03T17:20:35.588Z,15.33
2019-04-03T17:23:04.224Z,15.23
2019-04-03T17:25:43.943Z,15.09
2019-04-03T17:28:07.996Z,15.00
2019-04-03T17:30:33.220Z,14.91
2019-04-03T17:33:02.916Z,14.86
2019-04-03T17:35:31.825Z,14.78
2019-04-03T17:38:00.934Z,14.73
2019-04-03T17:40:30.097Z,14.70
2019-04-03T17:42:58.878Z,14.63
2019-04-03T17:45:27.441Z,14.81
2019-04-03T17:47:55.905Z,14.69
2019-04-03T17:50:24.389Z,14.57
2019-04-03T17:52:52.869Z,14.49
2019-04-03T17:55:21.346Z,14.42
2019-04-03T17:57:49.815Z,14.39
2019-04-03T18:00:20.944Z,14.61
2019-04-03T18:02:49.424Z,14.64
2019-04-03T18:05:17.901Z,14.45
2019-04-03T18:07:46.354Z,14.30
2019-04-03T18:10:14.825Z,14.18
2019-04-03T18:12:45.665Z,14.11
2019-04-03T18:15:13.745Z,14.03
2019-04-03T18:17:42.223Z,14.00
2019-04-03T18:20:13.318Z,13.95
2019-04-03T18:22:41.327Z,13.90
2019-04-03T18:25:10.193Z,13.90
2019-04-03T18:27:38.995Z,13.93
2019-04-03T18:30:11.168Z,13.91
2019-04-03T18:32:37.653Z,13.91
2019-04-03T18:35:07.238Z,13.91
2019-04-03T18:37:36.006Z,13.88
2019-04-03T18:40:05.131Z,13.87
2019-04-03T18:42:33.608Z,13.82
2019-04-03T18:45:02.072Z,13.77
2019-04-03T18:47:40.509Z,13.72
2019-04-03T18:50:03.539Z,13.70
2019-04-03T18:52:31.548Z,13.67
2019-04-03T18:55:00.018Z,13.63
2019-04-03T18:57:28.474Z,13.62
2019-04-03T19:00:00.386Z,13.59
2019-04-03T19:02:27.127Z,13.57
2019-04-03T19:05:01.694Z,13.52
2019-04-03T19:07:25.804Z,13.46
2019-04-03T19:10:06.021Z,13.39
2019-04-03T19:12:34.905Z,13.31
2019-04-03T19:14:54.922Z,13.25
2019-04-03T19:17:24.825Z,13.24
2019-04-03T19:20:04.001Z,13.25
2019-04-03T19:22:25.617Z,13.23
2019-04-03T19:24:53.948Z,15.17
2019-04-03T19:27:22.435Z,15.98
2019-04-03T19:29:50.927Z,15.13
2019-04-03T19:32:19.458Z,14.36
2019-04-03T19:34:48.281Z,13.91
2019-04-03T19:37:16.725Z,13.62
2019-04-03T19:39:45.249Z,13.47
2019-04-03T19:42:14.076Z,13.34
2019-04-03T19:44:42.560Z,13.27
2019-04-03T19:47:11.276Z,13.19
2019-04-03T19:49:40.296Z,13.11
2019-04-03T19:52:08.959Z,13.02
2019-04-03T19:54:37.409Z,12.84
2019-04-03T19:57:05.901Z,12.76
2019-04-03T19:59:34.746Z,12.77
2019-04-03T20:02:03.242Z,12.78
2019-04-03T20:04:31.698Z,12.78
2019-04-03T20:07:00.206Z,12.76
2019-04-03T20:09:31.877Z,12.76
2019-04-03T20:11:59.174Z,12.71
2019-04-03T20:14:27.645Z,12.66
2019-04-03T20:16:58.448Z,12.60
2019-04-03T20:19:27.210Z,12.59
2019-04-03T20:21:55.813Z,12.57
2019-04-03T20:24:25.257Z,12.56
2019-04-03T20:26:53.876Z,12.52
2019-04-03T20:29:22.362Z,12.48
2019-04-03T20:31:50.855Z,12.47
2019-04-03T20:34:19.374Z,12.47
2019-04-03T20:36:50.951Z,12.49
2019-04-03T20:39:18.057Z,12.46
2019-04-03T20:41:46.534Z,12.48
2019-04-03T20:44:16.932Z,12.41
2019-04-03T20:46:45.183Z,12.35
2019-04-03T20:49:13.672Z,12.37
2019-04-03T20:51:42.166Z,12.37
2019-04-03T20:54:11.930Z,12.35
2019-04-03T20:56:40.477Z,12.32
2019-04-03T20:59:11.238Z,12.27
2019-04-03T21:01:39.188Z,12.23
2019-04-03T21:04:07.641Z,12.22
2019-04-03T21:06:37.517Z,12.20
2019-04-03T21:09:06.839Z,12.22
2019-04-03T21:11:35.299Z,12.22
2019-04-03T21:14:05.636Z,12.21
2019-04-03T21:16:34.265Z,12.22
2019-04-03T21:19:02.750Z,12.23
2019-04-03T21:21:31.506Z,12.25
2019-04-03T21:23:59.992Z,12.25
2019-04-03T21:26:28.461Z,12.23
2019-04-03T21:28:56.950Z,12.22
2019-04-03T21:31:26.520Z,12.22
2019-04-03T21:33:55.043Z,12.21
2019-04-03T21:36:23.581Z,12.22
2019-04-03T21:38:52.073Z,12.22
2019-04-03T21:41:21.299Z,12.23
2019-04-03T21:43:50.176Z,12.20
2019-04-03T21:46:18.681Z,12.18
2019-04-03T21:48:47.161Z,12.17
2019-04-03T21:51:15.617Z,12.18
2019-04-03T21:53:44.089Z,12.20
2019-04-03T21:56:12.547Z,12.19
2019-04-03T21:58:40.998Z,12.16
2019-04-03T22:01:18.769Z,12.14
2019-04-03T22:03:50.495Z,12.15
2019-04-03T22:06:17.971Z,12.14
2019-04-03T22:08:46.451Z,12.09
2019-04-03T22:11:14.940Z,12.06
2019-04-03T22:13:43.482Z,12.03
2019-04-03T22:16:11.977Z,12.07
2019-04-03T22:18:40.442Z,12.08
2019-04-03T22:21:09.175Z,12.08
2019-04-03T22:23:37.651Z,12.07
2019-04-03T22:26:06.131Z,12.08
2019-04-03T22:28:34.598Z,12.06
2019-04-03T22:31:03.088Z,12.06
2019-04-03T22:33:31.568Z,12.06
2019-04-03T22:36:01.284Z,12.04
2019-04-03T22:38:30.329Z,12.03
2019-04-03T22:40:58.818Z,12.06
2019-04-03T22:43:27.856Z,12.07
2019-04-03T22:45:56.342Z,12.09
2019-04-03T22:48:26.766Z,12.08
2019-04-03T22:50:55.362Z,12.10
2019-04-03T22:53:23.829Z,12.10
2019-04-03T22:55:52.314Z,12.13
2019-04-03T22:58:21.546Z,12.13
2019-04-03T23:00:50.136Z,12.14
2019-04-03T23:03:18.731Z,12.10
2019-04-03T23:05:48.073Z,12.03
2019-04-03T23:08:17.169Z,12.00
2019-04-03T23:10:45.627Z,12.03
2019-04-03T23:13:14.092Z,11.94
2019-04-03T23:15:42.594Z,11.97
2019-04-03T23:18:11.318Z,11.92
2019-04-03T23:20:40.101Z,11.94
2019-04-03T23:23:08.584Z,12.00
2019-04-03T23:25:37.383Z,12.06
2019-04-03T23:28:05.893Z,12.06
2019-04-03T23:30:34.437Z,12.01
2019-04-03T23:33:02.901Z,12.01
2019-04-03T23:35:31.351Z,11.91
2019-04-03T23:37:59.890Z,11.91
2019-04-03T23:40:28.365Z,11.54
2019-04-03T23:42:56.837Z,11.37
2019-04-03T23:45:27.690Z,11.42
2019-04-03T23:47:56.165Z,11.35
2019-04-03T23:50:24.657Z,11.25
2019-04-03T23:52:53.152Z,11.23
2019-04-03T23:55:21.620Z,11.24
2019-04-03T23:57:50.069Z,11.22
